createdAt,value
2022-08-20T00:04:52.917Z,100229.78
2022-08-20T00:10:15.170Z,100221.72
2022-08-20T00:15:38.193Z,100239.09
2022-08-20T00:21:00.029Z,100240.78
2022-08-20T00:26:23.577Z,100244.25
2022-08-20T00:31:45.395Z,100250.09
2022-08-20T00:37:07.277Z,100243.69
2022-08-20T00:42:29.095Z,100237.44
2022-08-20T00:47:51.661Z,100226.03
2022-08-20T00:53:14.003Z,100231.34
2022-08-20T00:58:37.642Z,100206.03
2022-08-20T01:03:59.565Z,100198.91
2022-08-20T01:09:50.170Z,100185.53
2022-08-20T01:15:06.439Z,100177.63
2022-08-20T01:20:31.903Z,100161.66
2022-08-20T01:26:09.479Z,100154.97
2022-08-20T01:31:33.849Z,100161.06
2022-08-20T01:36:58.285Z,100144.66
2022-08-20T01:42:31.885Z,100141.81
2022-08-20T01:47:53.715Z,100154.13
2022-08-20T01:53:18.381Z,100143.38
2022-08-20T01:58:45.030Z,100129.00
2022-08-20T02:04:09.939Z,100116.91
2022-08-20T02:09:38.599Z,100112.81
2022-08-20T02:15:00.580Z,100119.63
2022-08-20T02:20:28.609Z,100111.69
2022-08-20T02:25:50.895Z,100116.81
2022-08-20T02:31:12.714Z,100117.94
2022-08-20T02:36:34.793Z,100126.13
2022-08-20T02:41:56.626Z,100144.72
2022-08-20T02:47:18.695Z,100162.34
2022-08-20T02:52:41.550Z,100165.13
2022-08-20T02:58:13.516Z,100154.66
2022-08-20T03:03:35.376Z,100163.72
2022-08-20T03:08:57.246Z,100144.28
2022-08-20T03:14:19.460Z,100144.94
2022-08-20T03:19:41.288Z,100123.66
2022-08-20T03:25:05.036Z,100109.31
2022-08-20T03:30:28.530Z,100090.88
2022-08-20T03:35:50.377Z,100091.59
2022-08-20T03:41:12.218Z,100081.03
2022-08-20T03:46:35.138Z,100079.78
2022-08-20T03:51:57.645Z,100066.91
2022-08-20T03:57:20.198Z,100069.41
2022-08-20T04:02:42.057Z,100082.41
2022-08-20T04:08:04.225Z,100102.78
2022-08-20T04:13:29.841Z,100109.00
2022-08-20T04:19:01.813Z,100124.69
2022-08-20T04:24:31.530Z,100118.78
2022-08-20T04:29:54.563Z,100118.44
2022-08-20T04:35:16.899Z,100132.38
2022-08-20T04:40:38.727Z,100130.44
2022-08-20T04:46:04.180Z,100120.72
2022-08-20T04:51:26.916Z,100127.28
2022-08-20T04:56:48.897Z,100143.88
2022-08-20T05:02:10.751Z,100136.97
2022-08-20T05:07:45.953Z,100144.13
2022-08-20T05:13:08.888Z,100137.78
2022-08-20T05:18:31.820Z,100134.91
2022-08-20T05:23:53.673Z,100134.31
2022-08-20T05:29:16.689Z,100139.16
2022-08-20T05:34:38.480Z,100132.56
2022-08-20T05:40:00.354Z,100146.47
2022-08-20T05:45:24.545Z,100144.13
2022-08-20T05:50:48.199Z,100148.13
2022-08-20T05:56:10.038Z,100144.50
2022-08-20T06:01:34.196Z,100147.81
2022-08-20T06:07:06.866Z,100140.59
2022-08-20T06:12:28.643Z,100148.97
2022-08-20T06:17:58.232Z,100155.44
2022-08-20T06:23:20.548Z,100158.81
2022-08-20T06:28:42.385Z,100153.31
2022-08-20T06:34:04.275Z,100159.47
2022-08-20T06:39:27.922Z,100149.53
2022-08-20T06:44:49.756Z,100174.63
2022-08-20T06:50:17.133Z,100157.78
2022-08-20T06:55:48.494Z,100157.97
2022-08-20T07:01:12.383Z,100164.13
2022-08-20T07:06:34.565Z,100161.72
2022-08-20T07:11:56.424Z,100161.44
2022-08-20T07:17:18.243Z,100162.88
2022-08-20T07:22:40.724Z,100171.03
2022-08-20T07:28:11.513Z,100171.13
2022-08-20T07:33:33.962Z,100168.41
2022-08-20T07:38:56.858Z,100158.38
2022-08-20T07:44:18.832Z,100163.38
2022-08-20T07:49:40.725Z,100173.09
2022-08-20T07:55:04.825Z,100170.88
2022-08-20T08:00:26.683Z,100168.75
2022-08-20T08:05:50.379Z,100173.53
2022-08-20T08:11:12.272Z,100165.38
2022-08-20T08:16:36.547Z,100151.94
2022-08-20T08:21:58.747Z,100146.91
2022-08-20T08:27:20.703Z,100147.00
2022-08-20T08:32:43.083Z,100142.56
2022-08-20T08:38:04.965Z,100118.47
2022-08-20T08:43:31.198Z,100116.06
2022-08-20T08:48:57.893Z,100114.28
2022-08-20T08:54:22.456Z,100127.66
2022-08-20T09:00:03.465Z,100124.44
2022-08-20T09:05:34.929Z,100138.88
2022-08-20T09:11:06.028Z,100126.22
2022-08-20T09:16:27.995Z,100139.22
2022-08-20T09:21:57.907Z,100142.81
2022-08-20T09:27:19.913Z,100141.91
2022-08-20T09:32:42.457Z,100138.59
2022-08-20T09:38:04.437Z,100135.03
2022-08-20T09:43:26.314Z,100132.94
2022-08-20T09:48:48.155Z,100127.13
2022-08-20T09:54:10.016Z,100114.75
2022-08-20T09:59:33.567Z,100114.28
2022-08-20T10:04:55.663Z,100106.94
2022-08-20T10:10:19.422Z,100105.28
2022-08-20T10:15:41.891Z,100111.06
2022-08-20T10:21:09.993Z,100099.41
2022-08-20T10:26:31.815Z,100093.75
2022-08-20T10:31:54.265Z,100093.81
2022-08-20T10:37:17.836Z,100077.56
2022-08-20T10:42:42.583Z,100087.28
2022-08-20T10:48:04.804Z,100085.19
2022-08-20T10:53:26.977Z,100093.19
2022-08-20T10:58:48.810Z,100102.56
2022-08-20T11:04:10.671Z,100106.59
2022-08-20T11:09:32.521Z,100098.06
2022-08-20T11:14:54.887Z,100081.22
2022-08-20T11:20:19.557Z,100067.84
2022-08-20T11:25:41.445Z,100070.28
2022-08-20T11:31:03.278Z,100062.84
2022-08-20T11:36:25.159Z,100076.16
2022-08-20T11:41:46.984Z,100073.31
2022-08-20T11:47:24.005Z,100075.31
2022-08-20T11:52:45.939Z,100074.81
2022-08-20T11:58:09.341Z,100068.44
2022-08-20T12:03:31.133Z,100062.97
2022-08-20T12:08:52.921Z,100083.06
2022-08-20T12:14:14.794Z,100068.06
2022-08-20T12:19:38.504Z,100061.00
2022-08-20T12:25:00.377Z,100057.72
2022-08-20T12:30:23.866Z,100067.97
2022-08-20T12:35:45.758Z,100052.50
2022-08-20T12:41:07.599Z,100057.47
2022-08-20T12:46:29.484Z,100043.84
2022-08-20T12:51:51.357Z,100039.25
2022-08-20T12:57:23.040Z,100041.50
2022-08-20T13:02:44.945Z,100037.75
2022-08-20T13:08:09.735Z,100036.44
2022-08-20T13:13:31.528Z,100024.78
2022-08-20T13:18:53.382Z,100023.16
2022-08-20T13:24:15.230Z,100014.81
2022-08-20T13:29:37.590Z,100019.91
2022-08-20T13:34:59.649Z,100008.97
2022-08-20T13:40:21.790Z,100001.75
2022-08-20T13:45:43.732Z,100013.69
2022-08-20T13:51:07.055Z,100014.25
2022-08-20T13:56:28.981Z,100014.25
2022-08-20T14:01:50.886Z,100012.22
2022-08-20T14:07:18.606Z,100016.41
2022-08-20T14:12:40.670Z,100016.94
2022-08-20T14:18:03.570Z,100020.22
2022-08-20T14:23:25.409Z,100035.66
2022-08-20T14:28:47.230Z,100023.88
2022-08-20T14:34:09.061Z,100026.13
2022-08-20T14:39:30.863Z,100041.06
2022-08-20T14:44:53.067Z,100035.84
2022-08-20T14:50:21.321Z,100041.97
2022-08-20T14:55:43.247Z,100040.13
2022-08-20T15:01:05.229Z,100032.47
2022-08-20T15:06:27.212Z,100050.53
2022-08-20T15:11:49.873Z,100044.81
2022-08-20T15:17:18.953Z,100036.94
2022-08-20T15:22:41.967Z,100054.56
2022-08-20T15:28:04.788Z,100048.75
2022-08-20T15:33:26.663Z,100051.34
2022-08-20T15:38:48.506Z,100058.53
2022-08-20T15:44:10.357Z,100060.41
2022-08-20T15:49:32.467Z,100060.63
2022-08-20T15:54:55.058Z,100056.94
2022-08-20T16:00:25.530Z,100054.59
2022-08-20T16:05:56.250Z,100057.41
2022-08-20T16:11:46.145Z,100049.56
2022-08-20T16:17:12.868Z,100051.66
2022-08-20T16:22:37.152Z,100050.41
2022-08-20T16:28:25.108Z,100049.34
2022-08-20T16:34:34.833Z,100052.94
2022-08-20T16:40:18.097Z,100040.25
2022-08-20T16:46:11.162Z,100053.81
2022-08-20T16:51:51.388Z,100041.09
2022-08-20T16:57:17.389Z,100039.28
2022-08-20T17:02:49.663Z,100054.09
2022-08-20T17:08:31.203Z,100048.63
2022-08-20T17:14:04.985Z,100049.78
2022-08-20T17:19:32.126Z,100060.38
2022-08-20T17:24:54.927Z,100057.41
2022-08-20T17:30:27.088Z,100057.66
2022-08-20T17:35:53.641Z,100067.38
2022-08-20T17:41:30.864Z,100070.34
2022-08-20T17:46:53.765Z,100085.00
2022-08-20T17:52:33.003Z,100085.66
2022-08-20T17:57:59.366Z,100079.31
2022-08-20T18:03:25.815Z,100074.06
2022-08-20T18:08:57.194Z,100085.84
2022-08-20T18:14:25.831Z,100080.91
2022-08-20T18:20:24.988Z,100086.00
2022-08-20T18:25:57.576Z,100091.09
2022-08-20T18:31:29.695Z,100076.59
2022-08-20T18:37:00.197Z,100081.44
2022-08-20T18:42:34.248Z,100076.06
2022-08-20T18:47:56.492Z,100093.16
2022-08-20T18:53:34.259Z,100091.63
2022-08-20T18:59:17.485Z,100089.38
2022-08-20T19:04:39.308Z,100093.47
2022-08-20T19:10:34.425Z,100109.19
2022-08-20T19:16:07.890Z,100116.53
2022-08-20T19:21:33.055Z,100106.78
2022-08-20T19:27:02.228Z,100108.50
2022-08-20T19:32:27.412Z,100105.41
2022-08-20T19:37:51.011Z,100106.88
2022-08-20T19:43:19.597Z,100087.88
2022-08-20T19:49:06.807Z,100089.81
2022-08-20T19:54:29.306Z,100084.97
2022-08-20T19:59:57.375Z,100087.91
2022-08-20T20:05:19.330Z,100085.31
2022-08-20T20:10:41.216Z,100083.09
2022-08-20T20:16:04.430Z,100085.88
2022-08-20T20:21:42.208Z,100080.88
2022-08-20T20:27:09.014Z,100076.44
2022-08-20T20:32:41.049Z,100066.16
2022-08-20T20:38:06.372Z,100069.13
2022-08-20T20:43:35.771Z,100090.63
2022-08-20T20:49:08.759Z,100084.13
2022-08-20T20:54:41.190Z,100077.19
2022-08-20T21:00:05.546Z,100075.66
2022-08-20T21:05:28.849Z,100085.38
2022-08-20T21:10:50.694Z,100082.16
2022-08-20T21:16:12.719Z,100068.00
2022-08-20T21:21:36.061Z,100079.66
2022-08-20T21:26:59.003Z,100079.38
2022-08-20T21:32:21.449Z,100073.41
2022-08-20T21:37:43.774Z,100067.88
2022-08-20T21:43:06.123Z,100067.31
2022-08-20T21:48:27.975Z,100069.94
2022-08-20T21:53:49.948Z,100066.63
2022-08-20T21:59:12.210Z,100075.22
2022-08-20T22:04:35.604Z,100069.09
2022-08-20T22:09:57.710Z,100086.34
2022-08-20T22:15:19.802Z,100099.03
2022-08-20T22:20:42.765Z,100092.22
2022-08-20T22:26:04.583Z,100096.56
2022-08-20T22:31:30.386Z,100093.97
2022-08-20T22:36:54.523Z,100103.72
2022-08-20T22:42:16.414Z,100100.91
2022-08-20T22:47:38.341Z,100105.03
2022-08-20T22:53:01.784Z,100115.13
2022-08-20T22:58:30.346Z,100111.19
2022-08-20T23:03:53.361Z,100117.13
2022-08-20T23:09:15.374Z,100120.97
2022-08-20T23:14:43.068Z,100127.09
2022-08-20T23:20:10.964Z,100132.00
2022-08-20T23:25:33.724Z,100139.72
2022-08-20T23:30:55.567Z,100136.81
2022-08-20T23:36:19.944Z,100141.31
2022-08-20T23:41:47.588Z,100136.06
2022-08-20T23:47:14.349Z,100142.94
2022-08-20T23:52:36.577Z,100131.41
2022-08-20T23:57:58.668Z,100143.00
